sensor_id;sensor_type;location;lat;lon;timestamp;pressure;altitude;pressure_sealevel;temperature;humidity
35121;BME280;21297;52.008;4.576;2023-07-16T00:02:00;52374.84;;;-143.47;55.88
35121;BME280;21297;52.008;4.576;2023-07-16T00:04:45;52384.69;;;-143.47;55.91
35121;BME280;21297;52.008;4.576;2023-07-16T00:07:31;52431.94;;;-143.47;56.54
35121;BME280;21297;52.008;4.576;2023-07-16T00:10:17;52439.81;;;-143.47;56.99
35121;BME280;21297;52.008;4.576;2023-07-16T00:13:05;52337.47;;;-143.47;56.55
35121;BME280;21297;52.008;4.576;2023-07-16T00:15:51;52325.66;;;-143.47;56.60
35121;BME280;21297;52.008;4.576;2023-07-16T00:18:37;52278.41;;;-143.47;57.27
35121;BME280;21297;52.008;4.576;2023-07-16T00:21:23;52180.00;;;-143.47;56.93
35121;BME280;21297;52.008;4.576;2023-07-16T00:24:09;52178.03;;;-143.47;57.58
35121;BME280;21297;52.008;4.576;2023-07-16T00:26:54;52203.63;;;-143.47;57.60
35121;BME280;21297;52.008;4.576;2023-07-16T00:29:40;52152.47;;;-143.47;56.71
35121;BME280;21297;52.008;4.576;2023-07-16T00:32:26;52140.66;;;-143.47;57.13
35121;BME280;21297;52.008;4.576;2023-07-16T00:35:11;52138.69;;;-143.47;57.79
35121;BME280;21297;52.008;4.576;2023-07-16T00:37:57;52158.38;;;-143.47;57.46
35121;BME280;21297;52.008;4.576;2023-07-16T00:40:43;52144.59;;;-143.47;57.64
35121;BME280;21297;52.008;4.576;2023-07-16T00:43:28;52160.34;;;-143.47;58.19
35121;BME280;21297;52.008;4.576;2023-07-16T00:46:14;52227.25;;;-143.47;57.19
35121;BME280;21297;52.008;4.576;2023-07-16T00:49:01;52199.69;;;-143.47;58.20
35121;BME280;21297;52.008;4.576;2023-07-16T00:51:47;52176.09;;;-143.47;58.20
35121;BME280;21297;52.008;4.576;2023-07-16T00:54:32;52142.63;;;-143.47;58.17
35121;BME280;21297;52.008;4.576;2023-07-16T00:57:18;52144.59;;;-143.47;58.74
35121;BME280;21297;52.008;4.576;2023-07-16T01:00:04;52150.50;;;-143.47;58.64
35121;BME280;21297;52.008;4.576;2023-07-16T01:02:50;52122.94;;;-143.47;59.55
35121;BME280;21297;52.008;4.576;2023-07-16T01:08:32;52144.59;;;-143.47;59.42
35121;BME280;21297;52.008;4.576;2023-07-16T01:11:21;52117.03;;;-143.47;60.02
35121;BME280;21297;52.008;4.576;2023-07-16T01:14:08;52150.50;;;-143.47;59.30
35121;BME280;21297;52.008;4.576;2023-07-16T01:16:53;52095.38;;;-143.47;59.62
35121;BME280;21297;52.008;4.576;2023-07-16T01:19:44;52091.44;;;-143.47;59.48
35121;BME280;21297;52.008;4.576;2023-07-16T01:31:41;52089.50;;;-143.47;59.34
35121;BME280;21297;52.008;4.576;2023-07-16T01:34:29;52113.09;;;-143.47;59.68
35121;BME280;21297;52.008;4.576;2023-07-16T01:37:16;52140.66;;;-143.47;59.44
35121;BME280;21297;52.008;4.576;2023-07-16T01:40:02;52058.00;;;-143.47;59.41
35121;BME280;21297;52.008;4.576;2023-07-16T01:42:48;52065.88;;;-143.47;59.55
35121;BME280;21297;52.008;4.576;2023-07-16T01:45:34;52077.69;;;-143.47;59.30
35121;BME280;21297;52.008;4.576;2023-07-16T01:48:31;52073.75;;;-143.47;59.21
35121;BME280;21297;52.008;4.576;2023-07-16T01:51:17;52065.88;;;-143.47;60.37
35121;BME280;21297;52.008;4.576;2023-07-16T01:54:05;52085.56;;;-143.47;59.95
35121;BME280;21297;52.008;4.576;2023-07-16T01:56:51;52046.19;;;-143.47;59.60
35121;BME280;21297;52.008;4.576;2023-07-16T01:59:36;52034.38;;;-143.47;60.08
35121;BME280;21297;52.008;4.576;2023-07-16T02:02:22;52109.16;;;-143.47;60.00
35121;BME280;21297;52.008;4.576;2023-07-16T02:05:08;52020.59;;;-143.47;60.17
35121;BME280;21297;52.008;4.576;2023-07-16T02:07:53;52093.41;;;-143.47;60.68
35121;BME280;21297;52.008;4.576;2023-07-16T02:10:39;52067.84;;;-143.47;61.06
35121;BME280;21297;52.008;4.576;2023-07-16T02:13:26;52069.81;;;-143.47;60.38
35121;BME280;21297;52.008;4.576;2023-07-16T02:16:12;52024.53;;;-143.47;60.90
35121;BME280;21297;52.008;4.576;2023-07-16T02:18:58;52026.50;;;-143.47;60.85
35121;BME280;21297;52.008;4.576;2023-07-16T02:21:43;52018.63;;;-143.47;60.59
35121;BME280;21297;52.008;4.576;2023-07-16T02:24:29;52036.34;;;-143.47;60.40
35121;BME280;21297;52.008;4.576;2023-07-16T02:27:14;52063.91;;;-143.47;60.42
35121;BME280;21297;52.008;4.576;2023-07-16T02:30:00;52059.97;;;-143.47;60.64
35121;BME280;21297;52.008;4.576;2023-07-16T02:32:46;52038.31;;;-143.47;60.44
35121;BME280;21297;52.008;4.576;2023-07-16T02:35:31;52087.53;;;-143.47;60.00
35121;BME280;21297;52.008;4.576;2023-07-16T02:38:17;52117.03;;;-143.47;60.35
35121;BME280;21297;52.008;4.576;2023-07-16T02:41:03;52091.44;;;-143.47;60.36
35121;BME280;21297;52.008;4.576;2023-07-16T02:43:59;52119.00;;;-143.47;60.62
35121;BME280;21297;52.008;4.576;2023-07-16T02:46:44;52124.91;;;-143.47;60.75
35121;BME280;21297;52.008;4.576;2023-07-16T02:49:30;52128.84;;;-143.47;60.94
35121;BME280;21297;52.008;4.576;2023-07-16T02:52:16;52063.91;;;-143.47;60.97
35121;BME280;21297;52.008;4.576;2023-07-16T02:55:01;52050.13;;;-143.47;60.76
35121;BME280;21297;52.008;4.576;2023-07-16T02:57:47;52073.75;;;-143.47;60.26
35121;BME280;21297;52.008;4.576;2023-07-16T03:00:33;52081.63;;;-143.47;61.18
35121;BME280;21297;52.008;4.576;2023-07-16T03:03:19;52063.91;;;-143.47;62.04
35121;BME280;21297;52.008;4.576;2023-07-16T03:06:07;52034.38;;;-143.47;61.95
35121;BME280;21297;52.008;4.576;2023-07-16T03:08:52;52282.34;;;-143.47;62.53
35121;BME280;21297;52.008;4.576;2023-07-16T03:11:38;52280.38;;;-143.47;62.85
35121;BME280;21297;52.008;4.576;2023-07-16T03:14:24;52239.06;;;-143.47;62.71
35121;BME280;21297;52.008;4.576;2023-07-16T03:17:09;52266.59;;;-143.47;62.82
35121;BME280;21297;52.008;4.576;2023-07-16T03:19:55;52213.47;;;-143.47;63.15
35121;BME280;21297;52.008;4.576;2023-07-16T03:22:40;52260.72;;;-143.47;63.11
35121;BME280;21297;52.008;4.576;2023-07-16T03:25:26;52246.94;;;-143.47;63.52
35121;BME280;21297;52.008;4.576;2023-07-16T03:28:13;52168.22;;;-143.47;63.54
35121;BME280;21297;52.008;4.576;2023-07-16T03:30:58;52239.06;;;-143.47;62.99
35121;BME280;21297;52.008;4.576;2023-07-16T03:33:44;52229.22;;;-143.47;63.00
35121;BME280;21297;52.008;4.576;2023-07-16T03:36:30;52294.16;;;-143.47;62.93
35121;BME280;21297;52.008;4.576;2023-07-16T03:39:15;52270.53;;;-143.47;63.56
35121;BME280;21297;52.008;4.576;2023-07-16T03:42:01;52264.63;;;-143.47;63.41
35121;BME280;21297;52.008;4.576;2023-07-16T03:44:47;52244.97;;;-143.47;63.61
35121;BME280;21297;52.008;4.576;2023-07-16T03:47:32;52272.50;;;-143.47;63.72
35121;BME280;21297;52.008;4.576;2023-07-16T03:50:18;52260.72;;;-143.47;63.75
35121;BME280;21297;52.008;4.576;2023-07-16T03:53:04;52309.91;;;-143.47;63.71
35121;BME280;21297;52.008;4.576;2023-07-16T03:55:49;52282.34;;;-143.47;63.97
35121;BME280;21297;52.008;4.576;2023-07-16T03:58:35;52252.84;;;-143.47;63.32
35121;BME280;21297;52.008;4.576;2023-07-16T04:01:21;52309.91;;;-143.47;63.19
35121;BME280;21297;52.008;4.576;2023-07-16T04:04:06;52278.41;;;-143.47;63.02
35121;BME280;21297;52.008;4.576;2023-07-16T04:06:52;52302.03;;;-143.47;62.72
35121;BME280;21297;52.008;4.576;2023-07-16T04:09:38;52304.00;;;-143.47;62.63
35121;BME280;21297;52.008;4.576;2023-07-16T04:12:24;52282.34;;;-143.47;62.63
35121;BME280;21297;52.008;4.576;2023-07-16T04:15:10;52292.19;;;-143.47;62.47
35121;BME280;21297;52.008;4.576;2023-07-16T04:17:56;52284.31;;;-143.47;62.67
35121;BME280;21297;52.008;4.576;2023-07-16T04:20:41;52280.38;;;-143.47;61.57
35121;BME280;21297;52.008;4.576;2023-07-16T04:23:27;52290.22;;;-143.47;62.16
35121;BME280;21297;52.008;4.576;2023-07-16T04:26:12;52268.56;;;-143.47;61.62
35121;BME280;21297;52.008;4.576;2023-07-16T04:28:58;52315.81;;;-143.47;61.86
35121;BME280;21297;52.008;4.576;2023-07-16T04:31:44;52278.41;;;-143.47;61.54
35121;BME280;21297;52.008;4.576;2023-07-16T04:34:29;52304.00;;;-143.47;61.46
35121;BME280;21297;52.008;4.576;2023-07-16T04:37:15;52313.84;;;-143.47;61.68
35121;BME280;21297;52.008;4.576;2023-07-16T04:40:00;52349.28;;;-143.47;61.16
35121;BME280;21297;52.008;4.576;2023-07-16T04:42:46;52429.97;;;-143.47;60.59
35121;BME280;21297;52.008;4.576;2023-07-16T04:45:32;52388.63;;;-143.47;60.19
35121;BME280;21297;52.008;4.576;2023-07-16T04:48:17;52388.63;;;-143.47;59.79
35121;BME280;21297;52.008;4.576;2023-07-16T04:51:03;52313.84;;;-143.47;59.22
35121;BME280;21297;52.008;4.576;2023-07-16T04:53:49;52357.16;;;-143.47;59.57
35121;BME280;21297;52.008;4.576;2023-07-16T04:56:35;52341.41;;;-143.47;59.23
35121;BME280;21297;52.008;4.576;2023-07-16T04:59:21;52380.75;;;-143.47;58.36
35121;BME280;21297;52.008;4.576;2023-07-16T05:02:07;52422.09;;;-143.47;58.06
35121;BME280;21297;52.008;4.576;2023-07-16T05:04:52;52416.19;;;-143.47;57.60
35121;BME280;21297;52.008;4.576;2023-07-16T05:07:38;52400.44;;;-143.47;57.65
35121;BME280;21297;52.008;4.576;2023-07-16T05:10:24;52429.97;;;-143.47;57.00
35121;BME280;21297;52.008;4.576;2023-07-16T05:13:10;52439.81;;;-143.47;56.91
35121;BME280;21297;52.008;4.576;2023-07-16T05:15:55;52420.13;;;-143.47;56.34
35121;BME280;21297;52.008;4.576;2023-07-16T05:18:41;52380.75;;;-143.47;56.94
35121;BME280;21297;52.008;4.576;2023-07-16T05:21:26;52388.63;;;-143.47;56.99
35121;BME280;21297;52.008;4.576;2023-07-16T05:24:12;52447.69;;;-143.47;57.35
35121;BME280;21297;52.008;4.576;2023-07-16T05:26:58;52506.72;;;-143.47;57.61
35121;BME280;21297;52.008;4.576;2023-07-16T05:29:43;52538.22;;;-143.47;57.39
35121;BME280;21297;52.008;4.576;2023-07-16T05:32:29;52506.72;;;-143.47;57.91
35121;BME280;21297;52.008;4.576;2023-07-16T05:35:15;52453.59;;;-143.47;58.05
35121;BME280;21297;52.008;4.576;2023-07-16T05:38:00;52463.44;;;-143.47;58.37
35121;BME280;21297;52.008;4.576;2023-07-16T05:40:46;52416.19;;;-143.47;58.65
35121;BME280;21297;52.008;4.576;2023-07-16T05:43:32;52490.97;;;-143.47;57.66
35121;BME280;21297;52.008;4.576;2023-07-16T05:46:18;52587.41;;;-143.47;57.07
35121;BME280;21297;52.008;4.576;2023-07-16T05:49:03;52599.22;;;-143.47;56.59
35121;BME280;21297;52.008;4.576;2023-07-16T05:51:49;52577.56;;;-143.47;56.35
35121;BME280;21297;52.008;4.576;2023-07-16T05:54:35;52644.50;;;-143.47;57.29
35121;BME280;21297;52.008;4.576;2023-07-16T05:57:20;52695.69;;;-143.47;56.13
35121;BME280;21297;52.008;4.576;2023-07-16T06:00:07;52664.19;;;-143.47;56.39
35121;BME280;21297;52.008;4.576;2023-07-16T06:02:52;52538.22;;;-143.47;56.35
35121;BME280;21297;52.008;4.576;2023-07-16T06:05:38;52542.16;;;-143.47;57.29
35121;BME280;21297;52.008;4.576;2023-07-16T06:08:24;52477.19;;;-143.47;57.05
35121;BME280;21297;52.008;4.576;2023-07-16T06:11:10;52424.06;;;-143.47;56.32
35121;BME280;21297;52.008;4.576;2023-07-16T06:13:55;52439.81;;;-143.47;56.32
35121;BME280;21297;52.008;4.576;2023-07-16T06:16:42;52449.66;;;-143.47;58.10
35121;BME280;21297;52.008;4.576;2023-07-16T06:19:28;52538.22;;;-143.47;57.18
35121;BME280;21297;52.008;4.576;2023-07-16T06:22:13;52546.09;;;-143.47;56.97
35121;BME280;21297;52.008;4.576;2023-07-16T06:24:59;52532.31;;;-143.47;57.49
35121;BME280;21297;52.008;4.576;2023-07-16T06:27:45;52546.09;;;-143.47;57.89
35121;BME280;21297;52.008;4.576;2023-07-16T06:30:30;52632.69;;;-143.47;57.93
35121;BME280;21297;52.008;4.576;2023-07-16T06:33:18;52552.00;;;-143.47;57.73
35121;BME280;21297;52.008;4.576;2023-07-16T06:36:04;52550.03;;;-143.47;58.72
35121;BME280;21297;52.008;4.576;2023-07-16T06:38:49;52552.00;;;-143.47;58.88
35121;BME280;21297;52.008;4.576;2023-07-16T06:41:35;52632.69;;;-143.47;58.76
35121;BME280;21297;52.008;4.576;2023-07-16T06:44:22;52567.75;;;-143.47;58.31
35121;BME280;21297;52.008;4.576;2023-07-16T06:47:07;52620.88;;;-143.47;58.43
35121;BME280;21297;52.008;4.576;2023-07-16T06:49:53;52738.97;;;-143.47;58.58
35121;BME280;21297;52.008;4.576;2023-07-16T06:52:39;52815.75;;;-143.47;57.96
35121;BME280;21297;52.008;4.576;2023-07-16T06:55:24;52851.16;;;-143.47;58.32
35121;BME280;21297;52.008;4.576;2023-07-16T06:58:11;52784.25;;;-143.47;57.05
35121;BME280;21297;52.008;4.576;2023-07-16T07:00:57;52738.97;;;-143.47;57.06
35121;BME280;21297;52.008;4.576;2023-07-16T07:03:42;52772.44;;;-143.47;56.82
35121;BME280;21297;52.008;4.576;2023-07-16T07:06:28;52746.84;;;-143.47;57.29
35121;BME280;21297;52.008;4.576;2023-07-16T07:09:13;52677.97;;;-143.47;56.89
35121;BME280;21297;52.008;4.576;2023-07-16T07:11:59;52750.78;;;-143.47;58.05
35121;BME280;21297;52.008;4.576;2023-07-16T07:14:46;52731.09;;;-143.47;56.92
35121;BME280;21297;52.008;4.576;2023-07-16T07:17:33;52727.16;;;-143.47;56.91
35121;BME280;21297;52.008;4.576;2023-07-16T07:20:18;52855.09;;;-143.47;56.84
35121;BME280;21297;52.008;4.576;2023-07-16T07:23:04;52853.13;;;-143.47;56.60
35121;BME280;21297;52.008;4.576;2023-07-16T07:25:51;52796.06;;;-143.47;56.32
35121;BME280;21297;52.008;4.576;2023-07-16T07:28:37;52853.13;;;-143.47;56.09
35121;BME280;21297;52.008;4.576;2023-07-16T07:31:23;52841.34;;;-143.47;56.84
35121;BME280;21297;52.008;4.576;2023-07-16T07:34:09;52817.72;;;-143.47;56.80
35121;BME280;21297;52.008;4.576;2023-07-16T07:36:54;52699.59;;;-143.47;56.88
35121;BME280;21297;52.008;4.576;2023-07-16T07:39:40;52760.63;;;-143.47;56.96
35121;BME280;21297;52.008;4.576;2023-07-16T07:42:25;52701.56;;;-143.47;57.60
35121;BME280;21297;52.008;4.576;2023-07-16T07:45:12;52803.94;;;-143.47;57.85
35121;BME280;21297;52.008;4.576;2023-07-16T07:47:58;52927.94;;;-143.47;56.22
35121;BME280;21297;52.008;4.576;2023-07-16T07:50:46;52969.28;;;-143.47;55.72
35121;BME280;21297;52.008;4.576;2023-07-16T07:53:31;52859.03;;;-143.47;56.11
35121;BME280;21297;52.008;4.576;2023-07-16T07:56:17;52809.84;;;-143.47;56.01
35121;BME280;21297;52.008;4.576;2023-07-16T07:59:03;52774.41;;;-143.47;57.33
35121;BME280;21297;52.008;4.576;2023-07-16T08:01:49;52668.13;;;-143.47;57.90
35121;BME280;21297;52.008;4.576;2023-07-16T08:04:35;52758.66;;;-143.47;57.50
35121;BME280;21297;52.008;4.576;2023-07-16T08:07:21;52664.19;;;-143.47;58.52
35121;BME280;21297;52.008;4.576;2023-07-16T08:10:07;52766.53;;;-143.47;58.41
35121;BME280;21297;52.008;4.576;2023-07-16T08:12:53;52827.56;;;-143.47;58.58
35121;BME280;21297;52.008;4.576;2023-07-16T08:15:39;52813.78;;;-143.47;57.46
35121;BME280;21297;52.008;4.576;2023-07-16T08:18:24;52801.97;;;-143.47;57.70
35121;BME280;21297;52.008;4.576;2023-07-16T08:21:10;52880.69;;;-143.47;57.79
35121;BME280;21297;52.008;4.576;2023-07-16T08:24:01;53055.88;;;-143.47;57.46
35121;BME280;21297;52.008;4.576;2023-07-16T08:26:47;53069.66;;;-143.47;55.67
35121;BME280;21297;52.008;4.576;2023-07-16T08:29:35;53016.53;;;-143.47;56.69
35121;BME280;21297;52.008;4.576;2023-07-16T08:32:22;52947.63;;;-143.47;55.87
35121;BME280;21297;52.008;4.576;2023-07-16T08:35:08;52809.84;;;-143.47;56.48
35121;BME280;21297;52.008;4.576;2023-07-16T08:37:57;52801.97;;;-143.47;56.94
35121;BME280;21297;52.008;4.576;2023-07-16T08:40:47;52833.47;;;-143.47;57.17
35121;BME280;21297;52.008;4.576;2023-07-16T08:43:33;52914.16;;;-143.47;57.60
35121;BME280;21297;52.008;4.576;2023-07-16T08:46:19;52939.75;;;-143.47;57.75
35121;BME280;21297;52.008;4.576;2023-07-16T08:49:07;52998.81;;;-143.47;56.53
35121;BME280;21297;52.008;4.576;2023-07-16T08:51:54;52998.81;;;-143.47;57.06
35121;BME280;21297;52.008;4.576;2023-07-16T08:54:40;53073.59;;;-143.47;56.54
35121;BME280;21297;52.008;4.576;2023-07-16T08:57:26;53006.69;;;-143.47;56.11
35121;BME280;21297;52.008;4.576;2023-07-16T09:00:13;52955.50;;;-143.47;55.98
35121;BME280;21297;52.008;4.576;2023-07-16T09:03:00;53020.47;;;-143.47;56.15
35121;BME280;21297;52.008;4.576;2023-07-16T09:05:46;53006.69;;;-143.47;55.29
35121;BME280;21297;52.008;4.576;2023-07-16T09:08:31;53002.75;;;-143.47;56.24
35121;BME280;21297;52.008;4.576;2023-07-16T09:11:17;53028.31;;;-143.47;55.51
35121;BME280;21297;52.008;4.576;2023-07-16T09:14:06;53189.75;;;-143.47;55.05
35121;BME280;21297;52.008;4.576;2023-07-16T09:16:53;53164.16;;;-143.47;55.01
35121;BME280;21297;52.008;4.576;2023-07-16T09:19:39;53203.53;;;-143.47;53.06
35121;BME280;21297;52.008;4.576;2023-07-16T09:22:24;53254.72;;;-143.47;53.27
35121;BME280;21297;52.008;4.576;2023-07-16T09:25:11;53207.47;;;-143.47;53.30
35121;BME280;21297;52.008;4.576;2023-07-16T09:28:02;53233.06;;;-143.47;54.05
35121;BME280;21297;52.008;4.576;2023-07-16T09:30:50;53351.16;;;-143.47;53.95
35121;BME280;21297;52.008;4.576;2023-07-16T09:33:36;53333.44;;;-143.47;53.15
35121;BME280;21297;52.008;4.576;2023-07-16T09:36:25;53270.47;;;-143.47;52.69
35121;BME280;21297;52.008;4.576;2023-07-16T09:39:11;53160.22;;;-143.47;53.17
35121;BME280;21297;52.008;4.576;2023-07-16T09:41:57;53250.78;;;-143.47;53.18
35121;BME280;21297;52.008;4.576;2023-07-16T09:44:44;53307.84;;;-143.47;50.77
35121;BME280;21297;52.008;4.576;2023-07-16T09:47:29;53372.81;;;-143.47;52.81
35121;BME280;21297;52.008;4.576;2023-07-16T09:50:15;53327.53;;;-143.47;52.08
35121;BME280;21297;52.008;4.576;2023-07-16T09:53:03;53449.59;;;-143.47;52.71
35121;BME280;21297;52.008;4.576;2023-07-16T09:55:50;53544.09;;;-143.47;52.41
35121;BME280;21297;52.008;4.576;2023-07-16T09:58:37;53420.06;;;-143.47;52.03
35121;BME280;21297;52.008;4.576;2023-07-16T10:01:23;53366.91;;;-143.47;52.69
35121;BME280;21297;52.008;4.576;2023-07-16T10:04:14;53359.03;;;-143.47;53.12
35121;BME280;21297;52.008;4.576;2023-07-16T10:07:00;53406.28;;;-143.47;52.55
35121;BME280;21297;52.008;4.576;2023-07-16T10:09:54;53431.88;;;-143.47;51.86
35121;BME280;21297;52.008;4.576;2023-07-16T10:12:41;53266.53;;;-143.47;51.34
35121;BME280;21297;52.008;4.576;2023-07-16T10:15:28;53288.16;;;-143.47;52.73
35121;BME280;21297;52.008;4.576;2023-07-16T10:18:23;53305.88;;;-143.47;50.52
35121;BME280;21297;52.008;4.576;2023-07-16T10:21:09;53382.66;;;-143.47;50.29
35121;BME280;21297;52.008;4.576;2023-07-16T10:23:58;53378.72;;;-143.47;49.36
35121;BME280;21297;52.008;4.576;2023-07-16T10:26:45;53359.03;;;-143.47;49.64
35121;BME280;21297;52.008;4.576;2023-07-16T10:29:30;53429.91;;;-143.47;50.28
35121;BME280;21297;52.008;4.576;2023-07-16T10:32:16;53520.47;;;-143.47;51.56
35121;BME280;21297;52.008;4.576;2023-07-16T10:35:04;53522.44;;;-143.47;51.21
35121;BME280;21297;52.008;4.576;2023-07-16T10:37:50;53614.97;;;-143.47;51.98
35121;BME280;21297;52.008;4.576;2023-07-16T10:40:41;53821.69;;;-143.47;49.75
35121;BME280;21297;52.008;4.576;2023-07-16T10:43:31;53744.91;;;-143.47;49.18
35121;BME280;21297;52.008;4.576;2023-07-16T10:46:20;53707.50;;;-143.47;49.57
35121;BME280;21297;52.008;4.576;2023-07-16T10:49:06;53589.38;;;-143.47;49.00
35121;BME280;21297;52.008;4.576;2023-07-16T10:51:53;53524.41;;;-143.47;49.25
35121;BME280;21297;52.008;4.576;2023-07-16T10:54:42;53520.47;;;-143.47;48.26
35121;BME280;21297;52.008;4.576;2023-07-16T10:57:32;53510.63;;;-143.47;49.27
35121;BME280;21297;52.008;4.576;2023-07-16T11:00:18;53534.25;;;-143.47;50.70
35121;BME280;21297;52.008;4.576;2023-07-16T11:03:04;53638.59;;;-143.47;50.83
35121;BME280;21297;52.008;4.576;2023-07-16T11:05:51;53479.13;;;-143.47;49.46
35121;BME280;21297;52.008;4.576;2023-07-16T11:08:38;53514.56;;;-143.47;49.32
35121;BME280;21297;52.008;4.576;2023-07-16T11:11:32;53441.72;;;-143.47;47.08
35121;BME280;21297;52.008;4.576;2023-07-16T11:14:22;53457.47;;;-143.47;48.77
35121;BME280;21297;52.008;4.576;2023-07-16T11:17:10;53475.19;;;-143.47;48.01
35121;BME280;21297;52.008;4.576;2023-07-16T11:20:02;53652.38;;;-143.47;48.16
35121;BME280;21297;52.008;4.576;2023-07-16T11:22:52;53916.19;;;-143.47;47.50
35121;BME280;21297;52.008;4.576;2023-07-16T11:25:38;54010.72;;;-143.47;46.01
35121;BME280;21297;52.008;4.576;2023-07-16T11:28:23;53845.31;;;-143.47;45.08
35121;BME280;21297;52.008;4.576;2023-07-16T11:31:10;53998.91;;;-143.47;46.38
35121;BME280;21297;52.008;4.576;2023-07-16T11:34:00;53943.78;;;-143.47;46.08
35121;BME280;21297;52.008;4.576;2023-07-16T11:36:49;53742.94;;;-143.47;47.04
35121;BME280;21297;52.008;4.576;2023-07-16T11:39:36;53900.44;;;-143.47;48.29
35121;BME280;21297;52.008;4.576;2023-07-16T11:42:30;53924.06;;;-143.47;47.03
35121;BME280;21297;52.008;4.576;2023-07-16T11:45:24;54223.38;;;-143.47;47.35
35121;BME280;21297;52.008;4.576;2023-07-16T11:48:13;54256.84;;;-143.47;46.43
35121;BME280;21297;52.008;4.576;2023-07-16T11:50:59;54117.03;;;-143.47;44.90
35121;BME280;21297;52.008;4.576;2023-07-16T11:53:44;54140.66;;;-143.47;45.80
35121;BME280;21297;52.008;4.576;2023-07-16T11:56:31;54079.63;;;-143.47;45.60
35121;BME280;21297;52.008;4.576;2023-07-16T11:59:17;54209.56;;;-143.47;45.10
35121;BME280;21297;52.008;4.576;2023-07-16T12:02:07;54128.84;;;-143.47;45.58
35121;BME280;21297;52.008;4.576;2023-07-16T12:04:52;54276.53;;;-143.47;45.31
35121;BME280;21297;52.008;4.576;2023-07-16T12:07:39;54394.66;;;-143.47;45.01
35121;BME280;21297;52.008;4.576;2023-07-16T12:10:25;54337.56;;;-143.47;45.17
35121;BME280;21297;52.008;4.576;2023-07-16T12:13:11;54205.63;;;-143.47;44.59
35121;BME280;21297;52.008;4.576;2023-07-16T12:15:58;54113.09;;;-143.47;46.08
35121;BME280;21297;52.008;4.576;2023-07-16T12:18:44;54243.06;;;-143.47;46.38
35121;BME280;21297;52.008;4.576;2023-07-16T12:21:30;54180.03;;;-143.47;44.27
35121;BME280;21297;52.008;4.576;2023-07-16T12:24:16;53994.97;;;-143.47;45.04
35121;BME280;21297;52.008;4.576;2023-07-16T12:27:03;53935.88;;;-143.47;46.56
35121;BME280;21297;52.008;4.576;2023-07-16T12:29:49;54180.03;;;-143.47;46.85
35121;BME280;21297;52.008;4.576;2023-07-16T12:32:35;54132.78;;;-143.47;44.69
35121;BME280;21297;52.008;4.576;2023-07-16T12:35:22;53951.66;;;-143.47;45.09
35121;BME280;21297;52.008;4.576;2023-07-16T12:38:09;53807.91;;;-143.47;45.82
35121;BME280;21297;52.008;4.576;2023-07-16T12:41:03;53924.06;;;-143.47;45.79
35121;BME280;21297;52.008;4.576;2023-07-16T12:43:50;54111.13;;;-143.47;44.63
35121;BME280;21297;52.008;4.576;2023-07-16T12:46:46;54008.75;;;-143.47;43.99
35121;BME280;21297;52.008;4.576;2023-07-16T12:49:35;54052.06;;;-143.47;43.52
35121;BME280;21297;52.008;4.576;2023-07-16T12:52:21;53859.09;;;-143.47;44.83
35121;BME280;21297;52.008;4.576;2023-07-16T12:55:12;53723.25;;;-143.47;44.81
35121;BME280;21297;52.008;4.576;2023-07-16T12:57:59;53636.63;;;-143.47;45.33
35121;BME280;21297;52.008;4.576;2023-07-16T13:00:45;53837.44;;;-143.47;46.37
35121;BME280;21297;52.008;4.576;2023-07-16T13:03:30;54160.34;;;-143.47;45.60
35121;BME280;21297;52.008;4.576;2023-07-16T13:06:16;54400.59;;;-143.47;44.75
35121;BME280;21297;52.008;4.576;2023-07-16T13:09:02;54282.44;;;-143.47;43.95
35121;BME280;21297;52.008;4.576;2023-07-16T13:11:49;54024.50;;;-143.47;43.79
35121;BME280;21297;52.008;4.576;2023-07-16T13:14:34;54321.81;;;-143.47;44.78
35121;BME280;21297;52.008;4.576;2023-07-16T13:17:20;54323.78;;;-143.47;43.77
35121;BME280;21297;52.008;4.576;2023-07-16T13:20:06;54439.97;;;-143.47;43.29
35121;BME280;21297;52.008;4.576;2023-07-16T13:22:52;54571.91;;;-143.47;43.14
35121;BME280;21297;52.008;4.576;2023-07-16T13:25:37;54404.53;;;-143.47;42.18
35121;BME280;21297;52.008;4.576;2023-07-16T13:28:24;54465.56;;;-143.47;42.37
35121;BME280;21297;52.008;4.576;2023-07-16T13:31:09;54499.03;;;-143.47;41.35
35121;BME280;21297;52.008;4.576;2023-07-16T13:33:55;54516.75;;;-143.47;40.32
35121;BME280;21297;52.008;4.576;2023-07-16T13:36:41;54406.50;;;-143.47;41.46
35121;BME280;21297;52.008;4.576;2023-07-16T13:39:26;54254.88;;;-143.47;41.76
35121;BME280;21297;52.008;4.576;2023-07-16T13:42:12;54270.63;;;-143.47;42.40
35121;BME280;21297;52.008;4.576;2023-07-16T13:44:58;54225.34;;;-143.47;42.40
35121;BME280;21297;52.008;4.576;2023-07-16T13:47:43;54191.84;;;-143.47;42.98
35121;BME280;21297;52.008;4.576;2023-07-16T13:50:29;54195.78;;;-143.47;42.81
35121;BME280;21297;52.008;4.576;2023-07-16T13:53:15;54243.06;;;-143.47;42.76
35121;BME280;21297;52.008;4.576;2023-07-16T13:56:00;54404.53;;;-143.47;42.87
35121;BME280;21297;52.008;4.576;2023-07-16T13:58:46;54652.63;;;-143.47;42.83
35121;BME280;21297;52.008;4.576;2023-07-16T14:01:37;54788.53;;;-143.47;42.09
35121;BME280;21297;52.008;4.576;2023-07-16T14:04:23;54951.97;;;-143.47;41.85
35121;BME280;21297;52.008;4.576;2023-07-16T14:07:09;54934.25;;;-143.47;41.19
35121;BME280;21297;52.008;4.576;2023-07-16T14:09:55;54995.31;;;-143.47;42.19
35121;BME280;21297;52.008;4.576;2023-07-16T14:12:41;54938.19;;;-143.47;42.47
35121;BME280;21297;52.008;4.576;2023-07-16T14:15:27;54780.63;;;-143.47;41.52
35121;BME280;21297;52.008;4.576;2023-07-16T14:18:12;54514.78;;;-143.47;42.16
35121;BME280;21297;52.008;4.576;2023-07-16T14:20:58;54252.91;;;-143.47;43.92
35121;BME280;21297;52.008;4.576;2023-07-16T14:23:44;54148.53;;;-143.47;42.92
35121;BME280;21297;52.008;4.576;2023-07-16T14:26:30;54142.63;;;-143.47;43.70
35121;BME280;21297;52.008;4.576;2023-07-16T14:29:15;54101.28;;;-143.47;43.36
35121;BME280;21297;52.008;4.576;2023-07-16T14:32:04;53886.66;;;-143.47;44.43